createdAt,value
2018-06-15T00:01:54.940Z,1.87
2018-06-15T00:05:04.091Z,1.87
2018-06-15T00:08:15.028Z,2.00
2018-06-15T00:11:24.148Z,1.50
2018-06-15T00:14:32.044Z,1.90
2018-06-15T00:17:40.722Z,1.80
2018-06-15T00:20:50.091Z,1.70
2018-06-15T00:23:59.614Z,2.20
2018-06-15T00:27:08.198Z,1.83
2018-06-15T00:30:18.078Z,2.07
2018-06-15T00:33:26.950Z,2.17
2018-06-15T00:36:35.487Z,1.90
2018-06-15T00:39:44.420Z,1.90
2018-06-15T00:42:53.224Z,2.00
2018-06-15T00:46:02.912Z,1.73
2018-06-15T00:49:10.617Z,1.90
2018-06-15T00:52:21.022Z,1.90
2018-06-15T00:55:29.032Z,2.00
2018-06-15T00:58:28.683Z,1.80
2018-06-15T01:01:37.683Z,1.80
2018-06-15T01:04:47.074Z,1.80
2018-06-15T01:07:56.571Z,1.90
2018-06-15T01:11:05.046Z,2.10
2018-06-15T01:14:14.222Z,1.97
2018-06-15T01:17:23.098Z,1.70
2018-06-15T01:20:32.260Z,1.90
2018-06-15T01:27:03.942Z,2.07
2018-06-15T01:30:14.558Z,2.10
2018-06-15T01:33:25.633Z,1.80
2018-06-15T01:36:33.567Z,2.03
2018-06-15T01:39:42.362Z,1.80
2018-06-15T01:42:50.035Z,1.90
2018-06-15T01:45:57.809Z,1.97
2018-06-15T01:49:06.899Z,1.97
2018-06-15T01:52:08.007Z,2.00
2018-06-15T01:55:18.129Z,1.70
2018-06-15T01:58:27.665Z,1.90
2018-06-15T02:01:36.827Z,2.00
2018-06-15T02:04:45.670Z,1.80
2018-06-15T02:07:55.866Z,2.00
2018-06-15T02:11:05.446Z,1.77
2018-06-15T02:14:14.285Z,2.07
2018-06-15T02:17:23.967Z,1.80
2018-06-15T02:20:24.883Z,1.70
2018-06-15T02:23:25.264Z,1.90
2018-06-15T02:26:35.492Z,2.00
2018-06-15T02:29:44.866Z,1.70
2018-06-15T02:32:54.512Z,1.83
2018-06-15T02:35:53.995Z,1.80
2018-06-15T02:39:04.105Z,1.93
2018-06-15T02:42:14.909Z,2.03
2018-06-15T02:45:24.048Z,2.10
2018-06-15T02:48:33.384Z,2.17
2018-06-15T02:51:42.440Z,2.20
2018-06-15T02:54:50.544Z,1.97
2018-06-15T02:58:01.188Z,2.00
2018-06-15T03:01:10.827Z,2.30
2018-06-15T03:04:18.845Z,1.87
2018-06-15T03:07:27.701Z,2.40
2018-06-15T03:10:36.329Z,2.10
2018-06-15T03:13:46.432Z,2.00
2018-06-15T03:16:55.059Z,2.20
2018-06-15T03:20:05.370Z,2.33
2018-06-15T03:23:14.215Z,2.10
2018-06-15T03:26:24.516Z,2.30
2018-06-15T03:29:32.613Z,2.10
2018-06-15T03:32:40.751Z,2.20
2018-06-15T03:35:49.586Z,2.20
2018-06-15T03:38:58.427Z,2.20
2018-06-15T03:42:07.898Z,2.30
2018-06-15T03:45:17.990Z,2.13
2018-06-15T03:48:18.278Z,2.13
2018-06-15T03:51:28.869Z,2.10
2018-06-15T03:54:37.645Z,2.40
2018-06-15T03:57:45.734Z,2.13
2018-06-15T04:00:54.377Z,2.10
2018-06-15T04:04:04.367Z,2.00
2018-06-15T04:07:13.013Z,2.43
2018-06-15T04:10:22.153Z,2.30
2018-06-15T04:13:31.627Z,2.00
2018-06-15T04:16:41.328Z,2.20
2018-06-15T04:19:53.897Z,2.00
2018-06-15T04:23:03.165Z,2.30
2018-06-15T04:26:13.041Z,2.10
2018-06-15T04:29:24.385Z,2.10
2018-06-15T04:32:32.107Z,2.40
2018-06-15T04:35:40.319Z,2.17
2018-06-15T04:38:49.371Z,2.10
2018-06-15T04:41:58.875Z,2.20
2018-06-15T04:45:08.349Z,1.97
2018-06-15T04:48:16.525Z,2.30
2018-06-15T04:51:25.579Z,2.20
2018-06-15T04:54:34.311Z,2.30
2018-06-15T04:57:43.571Z,2.37
2018-06-15T05:00:53.747Z,2.43
2018-06-15T05:04:01.778Z,2.30
2018-06-15T05:07:12.146Z,2.50
2018-06-15T05:10:20.293Z,2.20
2018-06-15T05:13:29.251Z,2.40
2018-06-15T05:16:38.169Z,2.30
2018-06-15T05:19:46.674Z,2.33
2018-06-15T05:22:55.678Z,1.80
2018-06-15T05:26:04.104Z,2.20
2018-06-15T05:29:13.625Z,2.23
2018-06-15T05:32:21.587Z,2.13
2018-06-15T05:35:29.445Z,2.37
2018-06-15T05:38:37.653Z,2.10
2018-06-15T05:41:45.925Z,2.13
2018-06-15T05:44:54.661Z,2.40
2018-06-15T05:48:04.010Z,2.30
2018-06-15T05:51:13.075Z,2.10
2018-06-15T05:54:22.123Z,2.30
2018-06-15T05:57:31.603Z,2.30
2018-06-15T06:00:40.645Z,2.30
2018-06-15T06:03:50.982Z,2.60
2018-06-15T06:06:59.288Z,2.40
2018-06-15T06:10:09.220Z,2.30
2018-06-15T06:13:18.211Z,2.17
2018-06-15T06:16:27.677Z,2.30
2018-06-15T06:19:35.120Z,2.23
2018-06-15T06:22:43.426Z,2.43
2018-06-15T06:25:51.289Z,2.10
2018-06-15T06:29:00.027Z,2.00
2018-06-15T06:32:10.414Z,2.37
2018-06-15T06:35:18.654Z,2.13
2018-06-15T06:38:27.699Z,2.43
2018-06-15T06:41:36.565Z,2.50
2018-06-15T06:44:45.632Z,2.23
2018-06-15T06:47:55.084Z,2.37
2018-06-15T06:51:04.327Z,2.37
2018-06-15T06:54:15.580Z,2.57
2018-06-15T06:57:25.179Z,2.30
2018-06-15T07:00:33.970Z,2.20
2018-06-15T07:03:44.397Z,2.30
2018-06-15T07:06:53.653Z,2.33
2018-06-15T07:10:07.209Z,2.30
2018-06-15T07:13:16.268Z,2.37
2018-06-15T07:16:24.688Z,2.40
2018-06-15T07:19:33.335Z,2.20
2018-06-15T07:22:41.990Z,2.23
2018-06-15T07:25:52.104Z,2.30
2018-06-15T07:29:00.023Z,2.27
2018-06-15T07:32:08.900Z,2.33
2018-06-15T07:35:08.225Z,2.20
2018-06-15T07:38:07.584Z,2.00
2018-06-15T07:41:15.582Z,2.47
2018-06-15T07:44:24.304Z,2.07
2018-06-15T07:47:33.739Z,2.00
2018-06-15T07:50:42.532Z,2.50
2018-06-15T07:53:50.327Z,2.67
2018-06-15T07:56:59.174Z,2.77
2018-06-15T08:00:09.542Z,2.43
2018-06-15T08:03:17.275Z,2.40
2018-06-15T08:06:28.948Z,2.43
2018-06-15T08:09:37.990Z,2.70
2018-06-15T08:12:46.729Z,2.33
2018-06-15T08:15:55.471Z,2.30
2018-06-15T08:19:05.040Z,2.60
2018-06-15T08:22:14.001Z,2.50
2018-06-15T08:25:21.452Z,2.73
2018-06-15T08:28:31.579Z,2.37
2018-06-15T08:31:40.396Z,2.87
2018-06-15T08:34:50.093Z,2.80
2018-06-15T08:37:57.647Z,2.53
2018-06-15T08:41:06.322Z,2.77
2018-06-15T08:44:16.828Z,2.47
2018-06-15T08:47:26.919Z,2.87
2018-06-15T08:50:35.018Z,2.97
2018-06-15T08:53:44.928Z,2.70
2018-06-15T08:56:53.872Z,2.80
2018-06-15T09:00:01.920Z,3.10
2018-06-15T09:03:10.683Z,2.70
2018-06-15T09:06:20.085Z,2.70
2018-06-15T09:09:28.095Z,2.80
2018-06-15T09:12:39.257Z,2.90
2018-06-15T09:15:47.348Z,2.70
2018-06-15T09:18:47.118Z,2.90
2018-06-15T09:21:55.116Z,3.00
2018-06-15T09:25:04.585Z,2.83
2018-06-15T09:28:13.509Z,2.40
2018-06-15T09:31:22.772Z,2.40
2018-06-15T09:34:31.635Z,2.77
2018-06-15T09:37:40.895Z,2.80
2018-06-15T09:40:50.575Z,2.43
2018-06-15T09:43:59.417Z,2.60
2018-06-15T09:47:08.291Z,2.70
2018-06-15T09:50:16.372Z,2.60
2018-06-15T09:53:25.734Z,2.43
2018-06-15T09:56:35.413Z,2.90
2018-06-15T09:59:42.946Z,2.67
2018-06-15T10:02:54.567Z,3.00
2018-06-15T10:06:04.816Z,2.70
2018-06-15T10:09:15.279Z,2.70
2018-06-15T10:12:25.581Z,2.50
2018-06-15T10:15:34.847Z,2.77
2018-06-15T10:18:43.473Z,2.93
2018-06-15T10:21:53.622Z,2.97
2018-06-15T10:25:02.837Z,3.40
2018-06-15T10:28:11.996Z,3.17
2018-06-15T10:31:11.587Z,3.33
2018-06-15T10:34:19.236Z,2.87
2018-06-15T10:37:28.460Z,3.07
2018-06-15T10:40:37.966Z,2.70
2018-06-15T10:43:46.850Z,2.70
2018-06-15T10:46:55.458Z,2.97
2018-06-15T10:50:03.554Z,2.87
2018-06-15T10:53:11.875Z,2.80
2018-06-15T10:56:20.708Z,2.77
2018-06-15T10:59:28.552Z,2.70
2018-06-15T11:02:36.205Z,2.70
2018-06-15T11:05:46.410Z,2.80
2018-06-15T11:08:56.413Z,2.57
2018-06-15T11:12:04.815Z,2.80
2018-06-15T11:15:14.199Z,2.57
2018-06-15T11:18:24.179Z,2.70
2018-06-15T11:21:32.847Z,2.60
2018-06-15T11:24:41.558Z,2.67
2018-06-15T11:27:49.442Z,2.70
2018-06-15T11:34:13.726Z,2.87
2018-06-15T11:37:22.172Z,2.37
2018-06-15T11:40:30.947Z,2.50
2018-06-15T11:43:39.420Z,2.77
2018-06-15T11:46:48.683Z,2.70
2018-06-15T11:50:01.911Z,2.57
2018-06-15T11:53:11.906Z,2.50
2018-06-15T11:56:21.064Z,2.50
2018-06-15T11:59:30.845Z,2.30
2018-06-15T12:02:40.000Z,2.40
2018-06-15T12:09:01.028Z,2.30
2018-06-15T12:12:10.711Z,2.60
2018-06-15T12:15:19.037Z,2.47
2018-06-15T12:18:27.660Z,2.60
2018-06-15T12:21:35.560Z,2.83
2018-06-15T12:24:35.428Z,2.30
2018-06-15T12:27:44.064Z,2.20
2018-06-15T12:30:52.278Z,2.60
2018-06-15T12:34:02.372Z,2.50
2018-06-15T12:37:10.696Z,2.70
2018-06-15T12:40:18.790Z,2.50
2018-06-15T12:43:27.228Z,2.40
2018-06-15T12:46:35.130Z,2.40
2018-06-15T12:49:42.638Z,2.40
2018-06-15T12:52:51.046Z,2.30
2018-06-15T12:56:00.096Z,2.13
2018-06-15T12:59:09.358Z,2.77
2018-06-15T13:02:17.992Z,2.43
2018-06-15T13:05:27.014Z,2.60
2018-06-15T13:08:36.822Z,3.00
2018-06-15T13:11:45.558Z,2.77
2018-06-15T13:14:55.248Z,2.53
2018-06-15T13:18:03.880Z,2.30
2018-06-15T13:21:12.410Z,2.80
2018-06-15T13:24:22.736Z,2.70
2018-06-15T13:27:31.462Z,2.70
2018-06-15T13:30:41.444Z,2.80
2018-06-15T13:33:50.224Z,2.87
2018-06-15T13:36:59.954Z,3.03
2018-06-15T13:40:09.558Z,2.90
2018-06-15T13:43:19.216Z,2.77
2018-06-15T13:46:28.999Z,2.80
2018-06-15T13:49:37.322Z,2.97
2018-06-15T13:52:45.614Z,2.90
2018-06-15T13:55:53.878Z,2.73
2018-06-15T13:59:02.426Z,3.20
2018-06-15T14:02:10.605Z,3.43
2018-06-15T14:05:09.835Z,3.00
2018-06-15T14:08:18.890Z,2.90
2018-06-15T14:11:27.541Z,2.90
2018-06-15T14:14:37.616Z,2.90
2018-06-15T14:17:47.421Z,2.80
2018-06-15T14:20:56.048Z,2.90
2018-06-15T14:24:06.870Z,3.27
2018-06-15T14:27:15.088Z,3.00
2018-06-15T14:30:23.807Z,2.77
2018-06-15T14:33:33.078Z,3.20
2018-06-15T14:36:42.653Z,3.03
2018-06-15T14:39:51.082Z,3.03
2018-06-15T14:42:58.034Z,3.30
2018-06-15T14:46:05.630Z,2.87
2018-06-15T14:49:14.565Z,2.90
2018-06-15T14:52:22.066Z,3.43
2018-06-15T14:55:31.330Z,2.90
2018-06-15T14:58:39.749Z,3.10
2018-06-15T15:01:48.414Z,3.13
2018-06-15T15:04:57.832Z,2.90
2018-06-15T15:08:06.537Z,2.90
2018-06-15T15:11:16.053Z,3.00
2018-06-15T15:14:24.668Z,2.87
2018-06-15T15:17:34.800Z,3.17
2018-06-15T15:20:33.925Z,2.60
2018-06-15T15:23:43.602Z,2.90
2018-06-15T15:26:52.444Z,2.90
2018-06-15T15:29:52.722Z,2.83
2018-06-15T15:32:53.246Z,2.77
2018-06-15T15:36:01.436Z,2.70
2018-06-15T15:39:02.340Z,2.77
2018-06-15T15:42:11.689Z,2.70
2018-06-15T15:45:20.853Z,2.90
2018-06-15T15:48:20.586Z,2.20
2018-06-15T15:51:29.138Z,3.00
2018-06-15T15:54:38.896Z,2.80
2018-06-15T15:57:46.410Z,2.37
2018-06-15T16:00:56.672Z,2.63
2018-06-15T16:04:06.282Z,2.40
2018-06-15T16:07:16.452Z,2.03
2018-06-15T16:10:25.202Z,2.27
2018-06-15T16:13:34.591Z,2.20
2018-06-15T16:16:43.640Z,2.23
2018-06-15T16:19:52.714Z,2.20
2018-06-15T16:23:01.815Z,2.20
2018-06-15T16:26:10.590Z,2.13
2018-06-15T16:29:20.482Z,2.03
2018-06-15T16:32:29.112Z,2.20
2018-06-15T16:35:38.371Z,2.00
2018-06-15T16:38:49.612Z,2.00
2018-06-15T16:42:01.458Z,2.13
2018-06-15T16:45:09.692Z,2.10
2018-06-15T16:48:17.744Z,2.00
2018-06-15T16:51:26.550Z,2.13
2018-06-15T16:54:35.564Z,2.10
2018-06-15T16:57:44.219Z,2.10
2018-06-15T17:00:52.866Z,2.10
2018-06-15T17:04:00.888Z,2.03
2018-06-15T17:07:10.644Z,1.80
2018-06-15T17:10:20.384Z,1.63
2018-06-15T17:13:29.610Z,1.80
2018-06-15T17:16:40.436Z,2.13
2018-06-15T17:19:48.540Z,2.00
2018-06-15T17:22:56.860Z,2.10
2018-06-15T17:25:55.844Z,1.90
2018-06-15T17:29:05.362Z,1.87
2018-06-15T17:32:13.997Z,2.00
2018-06-15T17:35:23.050Z,1.90
2018-06-15T17:38:31.060Z,2.20
2018-06-15T17:41:40.838Z,2.10
2018-06-15T17:44:50.854Z,2.10
2018-06-15T17:47:59.777Z,2.30
2018-06-15T17:51:07.752Z,2.10
2018-06-15T17:54:16.203Z,1.90
2018-06-15T17:57:23.926Z,2.20
2018-06-15T18:00:32.961Z,1.90
2018-06-15T18:03:41.171Z,1.90
2018-06-15T18:06:50.236Z,2.00
2018-06-15T18:09:59.000Z,2.10
2018-06-15T18:13:09.180Z,1.93
2018-06-15T18:16:19.992Z,1.60
2018-06-15T18:19:29.148Z,2.10
2018-06-15T18:22:37.236Z,2.10
2018-06-15T18:25:45.067Z,1.93
2018-06-15T18:28:55.100Z,2.00
2018-06-15T18:31:55.659Z,2.07
2018-06-15T18:35:05.026Z,1.67
2018-06-15T18:38:16.046Z,2.00
2018-06-15T18:41:24.370Z,1.90
2018-06-15T18:44:33.418Z,2.13
2018-06-15T18:47:44.168Z,1.90
2018-06-15T18:50:54.341Z,2.23
2018-06-15T18:54:03.594Z,2.00
2018-06-15T18:57:12.760Z,2.20
2018-06-15T19:00:11.501Z,2.30
2018-06-15T19:03:20.004Z,1.87
2018-06-15T19:06:28.218Z,2.40
2018-06-15T19:09:35.598Z,1.90
2018-06-15T19:12:45.380Z,2.50
2018-06-15T19:15:45.555Z,2.07
2018-06-15T19:18:53.873Z,2.10
2018-06-15T19:22:02.089Z,2.47
2018-06-15T19:25:11.251Z,2.10
2018-06-15T19:28:20.071Z,2.33
2018-06-15T19:31:29.868Z,2.40
2018-06-15T19:34:37.991Z,2.20
2018-06-15T19:37:47.250Z,2.00
2018-06-15T19:40:47.852Z,2.17
2018-06-15T19:43:56.164Z,1.93
2018-06-15T19:47:05.840Z,2.03
2018-06-15T19:50:14.880Z,2.60
2018-06-15T19:53:23.528Z,2.30
2018-06-15T19:56:30.281Z,2.17
2018-06-15T19:59:39.430Z,2.50
2018-06-15T20:02:48.592Z,2.10
2018-06-15T20:05:57.458Z,2.47
2018-06-15T20:09:06.163Z,2.40
2018-06-15T20:12:14.712Z,2.20
2018-06-15T20:15:16.637Z,2.23
2018-06-15T20:18:25.600Z,2.37
2018-06-15T20:21:35.730Z,2.03
2018-06-15T20:24:44.856Z,2.30
2018-06-15T20:27:59.886Z,2.13
2018-06-15T20:31:08.868Z,2.07
2018-06-15T20:34:19.326Z,2.60
2018-06-15T20:37:29.776Z,2.30
2018-06-15T20:40:38.787Z,2.40
2018-06-15T20:43:46.690Z,2.33
2018-06-15T20:46:55.514Z,2.17
2018-06-15T20:50:05.245Z,2.10
2018-06-15T20:53:14.682Z,2.10
2018-06-15T20:56:14.126Z,2.30
2018-06-15T20:59:21.990Z,2.20
2018-06-15T21:02:29.760Z,2.13
2018-06-15T21:05:38.566Z,2.10
2018-06-15T21:08:48.036Z,2.03
2018-06-15T21:11:58.758Z,2.07
2018-06-15T21:15:08.659Z,2.07
2018-06-15T21:18:17.070Z,2.47
2018-06-15T21:21:24.653Z,2.20
2018-06-15T21:24:35.584Z,2.20
2018-06-15T21:27:44.092Z,2.43
2018-06-15T21:30:53.088Z,2.50
2018-06-15T21:34:02.346Z,2.40
2018-06-15T21:37:02.711Z,2.20
2018-06-15T21:40:12.190Z,2.50
2018-06-15T21:43:21.018Z,2.53
2018-06-15T21:46:31.339Z,2.40
2018-06-15T21:49:43.635Z,2.10
2018-06-15T21:52:51.049Z,2.40
2018-06-15T21:55:59.664Z,2.27
2018-06-15T21:58:58.660Z,2.40
2018-06-15T22:05:20.590Z,2.40
2018-06-15T22:08:32.713Z,2.13
2018-06-15T22:11:42.283Z,2.27
2018-06-15T22:14:51.196Z,2.50
2018-06-15T22:18:00.595Z,2.23
2018-06-15T22:21:11.450Z,2.30
2018-06-15T22:24:20.060Z,2.20
2018-06-15T22:27:32.667Z,2.47
2018-06-15T22:30:42.646Z,2.30
2018-06-15T22:33:53.689Z,2.20
2018-06-15T22:37:02.536Z,2.20
2018-06-15T22:40:10.721Z,2.13
2018-06-15T22:43:21.684Z,2.17
2018-06-15T22:46:30.106Z,2.37
2018-06-15T22:49:38.116Z,2.33
2018-06-15T22:52:46.960Z,2.30
2018-06-15T22:55:59.005Z,2.27
2018-06-15T22:59:08.509Z,2.17
2018-06-15T23:02:16.866Z,2.70
2018-06-15T23:05:25.674Z,2.40
2018-06-15T23:08:35.259Z,2.37
2018-06-15T23:11:43.747Z,2.30
2018-06-15T23:15:05.580Z,2.20
2018-06-15T23:18:17.868Z,2.30
2018-06-15T23:21:27.122Z,2.50
2018-06-15T23:27:48.469Z,2.60
2018-06-15T23:30:57.726Z,2.60
2018-06-15T23:34:07.223Z,2.50
2018-06-15T23:37:15.620Z,2.80
2018-06-15T23:40:30.726Z,2.60
2018-06-15T23:43:40.298Z,2.07
2018-06-15T23:46:48.208Z,2.30
2018-06-15T23:49:56.521Z,2.43
2018-06-15T23:52:57.360Z,2.47
2018-06-15T23:56:06.692Z,2.47
2018-06-15T23:59:14.364Z,2.30
